Farina, Illinois
Current Conditions -  °F | °C
As of 6:55 PM on Tuesday 21 Oct 2014 (Local Time) from KSLO Reporting Station
Clear Clear  
Wind Chill: 56°   Ceiling: Unl
Heat Index: 56°   Visibility: 10mi
Dew Point: 44°   Wind: 3mph
Humidity: 63%   Direction: 40°NE
Pressure: 30.15"   Gusts: NA
Location:  38.83°N, 88.77°W
Report Text: KSLO 212355Z AUTO 04003KT 10SM CLR 14/07 A3015 RMK AO2 T01350065 10194 20135
Loading
Personal Weather Stations






























Interactive Weather Map
Tropical Storm Tracking
New forecast layout! Learn more

10-Day Weather Forecast

Advertisements
Track Severe Weather on mobile